Game Details

[ Leader Board ] [ Players ] [ Opponents ] [ Guilds ] [ Areas ]

Game Details for: Xerxes

Game Progress

Quest Completed on Day
Ackeron Savior 233
Artemis Shutdown 230
Solar Rejuvenator 229
Plasma Cube 222
Trader 8 216
Trader 9 193
Slayer 193
Arena 4 175
Xornium 164
Arena 5 162
Pulse Matrix 133
Trader 2 85
Data Cubes 83
Arena 2 74
Trader 4 67
Trader 3 50
Mountain Pass 49
Chaak Mine 39
Arena 1 27
Dave and Heidi 20
Mushroom Stew 12

Full Telemetry

Time Game Day Game Hour Game Minute Type Details Value Extra Zone X Y Credits Guild
11/6/2016 3:08:44 AM 233 12 28 Quest Ackeron Savior 963 SpaceStation 5 37 51618 Psionic
11/6/2016 2:38:15 AM 233 7 45 Equip Alien Psi Kinetic Field 729 SpaceStation 30 18 49801 Psionic
11/6/2016 1:58:20 AM 233 0 0 Daily Xerxes 11338 Wilderness6 7 35 44648 Psionic
11/5/2016 7:56:36 PM 232 0 0 Daily Xerxes 11338 Wilderness6 23 6 39262 Psionic
11/5/2016 5:20:07 PM 231 0 0 Daily Xerxes 11338 Wilderness5 5 25 37227 Psionic
11/5/2016 5:13:46 PM 230 18 11 Quest Artemis Shutdown 0 Base4 22 6 35817 Psionic
11/5/2016 5:01:22 PM 230 5 49 Daily Xerxes 11325 Village9 18 25 33742 Psionic
11/5/2016 4:51:06 PM 229 1 36 Quest Solar Rejuvenator 0 ScienceLab1 27 4 33395 Psionic
11/5/2016 4:50:35 PM 229 0 0 Daily Xerxes 11338 Wilderness4 22 36 33395 Psionic
11/5/2016 4:44:57 PM 228 8 42 Daily Xerxes 11325 Village4 5 14 34267 Psionic
11/5/2016 4:40:12 PM 227 8 35 Daily Xerxes 11338 Village7 4 18 34871 Psionic
11/3/2016 8:00:21 AM 226 1 32 Daily Xerxes 11338 Village10 7 13 33909 Psionic
11/3/2016 7:44:52 AM 225 1 48 Daily Xerxes 11325 Village10 4 12 30114 Psionic
11/3/2016 7:33:31 AM 224 0 0 Daily Xerxes 11338 Wilderness2 5 23 29189 Psionic
11/3/2016 7:25:47 AM 223 0 0 Daily Xerxes 11351 Wilderness1 14 21 29707 Psionic
11/3/2016 7:16:58 AM 222 0 21 Quest Plasma Cube 0 ScienceLab1 28 5 29454 Psionic
11/3/2016 7:16:15 AM 222 0 0 Daily Xerxes 11351 Wilderness4 6 37 29454 Psionic
11/3/2016 7:14:31 AM 221 4 47 Daily Xerxes 11325 Village6 7 24 28237 Psionic
11/2/2016 10:53:57 PM 220 1 34 Daily Xerxes 11338 Village7 9 17 27482 Psionic
11/2/2016 10:50:59 PM 219 17 28 Equip Alien Psionic Rapier 1044 Village9 9 11 27283 Psionic
11/2/2016 10:48:35 PM 219 14 13 Equip Alien Shiny Kinetic Field 709 Wilderness5 3 15 30275 Psionic
11/2/2016 10:43:04 PM 219 4 38 Daily Xerxes 11198 Village10 7 13 28923 Psionic
11/2/2016 10:22:21 PM 218 20 16 Equip Alien Psi Steel Cap 878 Base3 6 9 25264 Psionic
11/2/2016 10:16:02 PM 218 19 36 Equip Alien Shiny Steel Cap 858 Base1 20 9 24708 Psionic
11/2/2016 10:07:32 PM 218 19 1 Equip Alien Psi Steel Cap 878 Base2 6 11 22046 Psionic
11/2/2016 10:02:07 PM 218 18 38 Equip Alien Shiny Steel Cap 858 Base1 15 19 18953 Psionic
11/2/2016 10:00:03 PM 218 18 37 Equip Alien Psi Steel Cap 878 Base1 12 13 18668 Psionic
11/2/2016 9:55:09 PM 218 14 5 Equip Alien Shiny Steel Cap 858 Village10 17 13 17241 Psionic
11/2/2016 9:51:42 PM 218 9 2 Train Vortex 0 Wilderness5 37 4 18935 Psionic
11/2/2016 9:51:42 PM 218 9 2 Daily Xerxes 11006 Wilderness5 37 4 18935 Psionic